Time;durP1;ratioP1;P1;durP2;ratioP2;P2;SDS_P1;SDS_P2;PMS_P1;PMS_P2;Temp;Humidity;BMP_temperature;BMP_pressure;BME280_temperature;BME280_humidity;BME280_pressure;Samples;Min_cycle;Max_cycle;Signal;HPM_P1;HPM_P2
2023/04/09 00:00:09;;;;;;;40.83;20.75;;;8.00;99.90;;;;;;5096148;28;20040;-73
2023/04/09 00:02:34;;;;;;;37.55;20.20;;;8.00;99.90;;;;;;5096028;28;20364;-74
2023/04/09 00:05:01;;;;;;;37.00;19.95;;;7.90;99.90;;;;;;5095959;28;20142;-73
2023/04/09 00:07:27;;;;;;;44.15;21.88;;;8.00;99.90;;;;;;5108121;28;20169;-73
2023/04/09 00:09:52;;;;;;;41.20;21.05;;;7.90;99.90;;;;;;5109044;28;20123;-73
2023/04/09 00:12:18;;;;;;;39.75;21.13;;;8.00;99.90;;;;;;5094208;28;20544;-73
2023/04/09 00:14:43;;;;;;;42.85;21.95;;;8.10;99.90;;;;;;5095864;28;20050;-74
2023/04/09 00:17:09;;;;;;;39.13;22.02;;;8.00;99.90;;;;;;5094645;28;20043;-74
2023/04/09 00:19:34;;;;;;;41.90;21.20;;;8.00;99.90;;;;;;5092356;28;20059;-73
2023/04/09 00:22:00;;;;;;;43.63;22.15;;;8.00;99.90;;;;;;5093282;28;20502;-73
2023/04/09 00:24:26;;;;;;;40.53;21.48;;;8.00;99.90;;;;;;5096276;28;20086;-74
2023/04/09 00:26:52;;;;;;;40.17;21.27;;;8.50;99.90;;;;;;5095012;28;20045;-74
2023/04/09 00:29:18;;;;;;;40.60;21.65;;;8.00;99.90;;;;;;5093767;28;20055;-73
2023/04/09 00:31:43;;;;;;;40.65;21.90;;;8.00;99.90;;;;;;5093665;28;20484;-73
2023/04/09 00:34:09;;;;;;;37.35;20.00;;;8.00;99.90;;;;;;5094509;28;20048;-73
2023/04/09 00:36:35;;;;;;;39.80;21.30;;;8.00;99.90;;;;;;5095349;28;20101;-74
2023/04/09 00:39:00;;;;;;;38.15;21.00;;;7.90;99.90;;;;;;5095101;28;20048;-74
2023/04/09 00:41:26;;;;;;;39.13;21.25;;;8.20;99.90;;;;;;5096208;28;20119;-73
2023/04/09 00:43:51;;;;;;;40.25;20.77;;;8.10;99.90;;;;;;5095261;28;20494;-74
2023/04/09 00:46:17;;;;;;;41.05;21.65;;;8.00;99.90;;;;;;5101044;28;20047;-73
2023/04/09 00:48:43;;;;;;;43.42;21.15;;;8.00;99.90;;;;;;5087891;28;20036;-73
2023/04/09 00:51:08;;;;;;;42.60;20.70;;;8.00;99.90;;;;;;5094995;28;20145;-73
2023/04/09 00:53:34;;;;;;;39.67;20.58;;;8.00;99.90;;;;;;5094679;28;20109;-74
2023/04/09 00:56:01;;;;;;;41.90;22.08;;;8.00;99.90;;;;;;5094765;28;20032;-74
2023/04/09 00:58:26;;;;;;;38.15;21.83;;;8.30;99.90;;;;;;5107267;28;20066;-73
2023/04/09 01:00:52;;;;;;;38.17;21.27;;;7.90;99.90;;;;;;5115527;28;20479;-75
2023/04/09 01:03:18;;;;;;;39.88;21.00;;;8.30;99.90;;;;;;5114084;28;20449;-73
2023/04/09 01:05:59;;;;;;;44.55;22.10;;;7.90;99.90;;;;;;5095430;28;20050;-74
2023/04/09 01:08:56;;;;;;;41.92;22.73;;;7.90;99.90;;;;;;5094645;28;20040;-74
2023/04/09 01:11:41;;;;;;;47.70;23.23;;;8.00;99.90;;;;;;5094786;28;20044;-74
2023/04/09 01:14:37;;;;;;;46.08;21.67;;;7.80;99.90;;;;;;5096171;28;20053;-73
2023/04/09 01:17:15;;;;;;;45.90;20.92;;;7.70;99.90;;;;;;5072893;28;20404;-74
2023/04/09 01:19:57;;;;;;;41.97;21.50;;;7.60;99.90;;;;;;5074314;28;20127;-73
2023/04/09 01:22:31;;;;;;;40.85;20.98;;;7.50;99.90;;;;;;5074353;28;20098;-74
2023/04/09 01:25:21;;;;;;;40.78;22.02;;;7.50;99.90;;;;;;5074019;28;20499;-74
2023/04/09 01:28:11;;;;;;;37.58;20.70;;;7.40;99.90;;;;;;5074136;28;20503;-74
2023/04/09 01:30:39;;;;;;;41.80;21.58;;;7.30;99.90;;;;;;5078952;28;20509;-73
2023/04/09 01:33:05;;;;;;;38.83;20.60;;;7.30;99.90;;;;;;5093327;28;20403;-74
2023/04/09 01:35:31;;;;;;;38.95;19.65;;;7.20;99.90;;;;;;5094288;28;20040;-74
2023/04/09 01:37:57;;;;;;;40.25;21.58;;;7.20;99.90;;;;;;5094039;28;20036;-73
2023/04/09 01:40:23;;;;;;;38.50;20.88;;;7.20;99.90;;;;;;5094186;28;20063;-73
2023/04/09 01:42:50;;;;;;;40.20;19.85;;;7.20;99.90;;;;;;5094218;28;20127;-74
2023/04/09 01:45:16;;;;;;;;;;;7.20;99.90;;;;;;5094560;28;20048;-74
2023/04/09 01:47:43;;;;;;;46.30;23.10;;;7.20;99.90;;;;;;5094113;28;19920;-74
2023/04/09 01:50:09;;;;;;;42.08;21.27;;;7.20;99.90;;;;;;5094814;28;20080;-73
2023/04/09 01:52:35;;;;;;;47.95;22.23;;;7.20;99.90;;;;;;5093015;28;20044;-74
2023/04/09 01:55:00;;;;;;;48.10;21.05;;;7.20;99.90;;;;;;5094088;28;20044;-74
2023/04/09 01:57:26;;;;;;;47.40;22.15;;;7.80;99.90;;;;;;5094041;28;20051;-75
2023/04/09 01:59:53;;;;;;;44.10;20.42;;;7.30;99.90;;;;;;5090708;28;20771;-73
2023/04/09 02:02:31;;;;;;;44.38;22.10;;;7.30;99.90;;;;;;5079306;28;20043;-74
2023/04/09 02:05:00;;;;;;;41.13;20.77;;;7.40;99.90;;;;;;5094064;28;20466;-74
2023/04/09 02:07:34;;;;;;;44.67;21.20;;;7.40;99.90;;;;;;5113728;28;20040;-73
2023/04/09 02:10:01;;;;;;;41.97;20.50;;;7.40;99.90;;;;;;5083502;28;20447;-74
2023/04/09 02:12:29;;;;;;;42.75;21.13;;;7.40;99.90;;;;;;5086861;28;20044;-74
2023/04/09 02:14:55;;;;;;;40.20;21.63;;;8.00;99.90;;;;;;5085643;28;20045;-74
2023/04/09 02:17:21;;;;;;;39.43;20.07;;;7.50;99.90;;;;;;5086258;28;20497;-75
2023/04/09 02:19:47;;;;;;;42.08;21.38;;;7.50;99.90;;;;;;5089324;28;20299;-74
2023/04/09 02:22:14;;;;;;;42.60;20.13;;;7.40;99.90;;;;;;5094658;28;20039;-73
2023/04/09 02:24:40;;;;;;;44.92;21.80;;;7.40;99.90;;;;;;5094061;28;20044;-73
2023/04/09 02:27:06;;;;;;;50.33;22.75;;;7.60;99.90;;;;;;5093527;28;20503;-75
2023/04/09 02:29:32;;;;;;;43.40;21.48;;;7.50;99.90;;;;;;5093646;28;20056;-73
2023/04/09 02:31:58;;;;;;;42.28;20.70;;;7.50;99.90;;;;;;5093601;28;20048;-73
2023/04/09 02:34:23;;;;;;;46.50;21.38;;;7.50;99.90;;;;;;5093424;28;20119;-73
2023/04/09 02:36:49;;;;;;;42.65;22.05;;;7.50;99.90;;;;;;5092445;28;20044;-73
2023/04/09 02:39:14;;;;;;;50.53;22.10;;;7.50;99.90;;;;;;5095631;28;20055;-74
2023/04/09 02:41:40;;;;;;;43.15;20.60;;;7.50;99.90;;;;;;5113881;28;20039;-73
2023/04/09 02:44:06;;;;;;;43.75;21.10;;;7.50;99.90;;;;;;5112841;28;20109;-73
2023/04/09 02:46:31;;;;;;;47.80;22.50;;;7.50;99.90;;;;;;5112452;28;20036;-74
2023/04/09 02:48:57;;;;;;;41.55;22.50;;;7.50;99.90;;;;;;5113858;28;20038;-74
2023/04/09 02:51:23;;;;;;;46.83;21.60;;;7.50;99.90;;;;;;5113951;28;20090;-74
2023/04/09 02:53:48;;;;;;;41.25;20.42;;;7.40;99.90;;;;;;5112862;28;20042;-73
2023/04/09 02:56:14;;;;;;;46.13;22.40;;;7.60;99.90;;;;;;5098774;28;20423;-73
2023/04/09 02:58:39;;;;;;;44.10;22.00;;;7.50;99.90;;;;;;5102562;28;20549;-74
2023/04/09 03:01:05;;;;;;;43.90;22.67;;;7.50;99.90;;;;;;5092031;28;20070;-73
2023/04/09 03:03:31;;;;;;;40.72;22.20;;;7.50;99.90;;;;;;5092874;28;20074;-74
2023/04/09 03:05:56;;;;;;;52.17;24.00;;;7.50;99.90;;;;;;5092885;28;20051;-74
2023/04/09 03:08:22;;;;;;;44.13;22.45;;;8.00;99.90;;;;;;5093218;28;20110;-74
2023/04/09 03:10:48;;;;;;;40.58;22.33;;;7.70;99.90;;;;;;5092850;28;20043;-73
2023/04/09 03:13:14;;;;;;;41.50;22.13;;;7.40;99.90;;;;;;5094285;28;20453;-73
2023/04/09 03:15:40;;;;;;;48.50;23.58;;;7.40;99.90;;;;;;5096312;28;20044;-74
2023/04/09 03:18:06;;;;;;;39.47;21.08;;;7.40;99.90;;;;;;5095809;28;20089;-74
2023/04/09 03:20:31;;;;;;;46.33;22.25;;;7.40;99.90;;;;;;5079799;28;20044;-75
2023/04/09 03:22:57;;;;;;;45.60;22.77;;;7.40;99.90;;;;;;5080277;28;20095;-74
2023/04/09 03:25:22;;;;;;;42.17;22.52;;;7.40;99.90;;;;;;5075662;28;20037;-74
2023/04/09 03:27:48;;;;;;;43.25;22.50;;;7.60;99.90;;;;;;5085896;28;20085;-73
2023/04/09 03:30:13;;;;;;;45.58;21.42;;;7.50;99.90;;;;;;5075981;28;20135;-72
2023/04/09 03:32:39;;;;;;;42.15;21.38;;;7.50;99.90;;;;;;5084254;28;20036;-74
2023/04/09 03:35:05;;;;;;;42.03;21.73;;;7.50;99.90;;;;;;5081881;28;20132;-74
2023/04/09 03:37:30;;;;;;;44.33;21.52;;;7.50;99.90;;;;;;5096472;28;20036;-74
2023/04/09 03:39:56;;;;;;;45.55;22.88;;;7.50;99.90;;;;;;5094475;28;20040;-73
2023/04/09 03:42:21;;;;;;;43.10;22.50;;;7.50;99.90;;;;;;5095216;28;20122;-74
2023/04/09 03:44:47;;;;;;;41.30;20.98;;;7.50;99.90;;;;;;5096215;28;20097;-74
2023/04/09 03:47:13;;;;;;;43.80;21.45;;;7.50;99.90;;;;;;5098337;28;20043;-73
2023/04/09 03:49:38;;;;;;;42.22;20.63;;;7.50;99.90;;;;;;5099284;28;20048;-72
2023/04/09 03:52:05;;;;;;;46.97;21.15;;;7.50;99.90;;;;;;5096390;28;20445;-73
2023/04/09 03:54:31;;;;;;;;;;;7.50;99.90;;;;;;5096698;28;20475;-75
2023/04/09 03:56:56;;;;;;;39.90;22.08;;;7.50;99.90;;;;;;5095075;28;20014;-74
2023/04/09 03:59:22;;;;;;;40.22;20.73;;;7.50;99.90;;;;;;5096176;28;20181;-75
2023/04/09 04:01:48;;;;;;;39.17;20.60;;;7.50;99.90;;;;;;5095826;28;20064;-74
2023/04/09 04:04:14;;;;;;;43.17;21.35;;;7.50;99.90;;;;;;5094030;28;20541;-74
2023/04/09 04:06:39;;;;;;;42.17;21.25;;;7.50;99.90;;;;;;5095908;28;20075;-74
2023/04/09 04:09:05;;;;;;;39.95;20.98;;;7.50;99.90;;;;;;5095930;28;20407;-75
2023/04/09 04:11:31;;;;;;;38.40;19.80;;;7.50;99.90;;;;;;5095910;28;20131;-75
2023/04/09 04:13:56;;;;;;;42.22;21.02;;;7.50;99.90;;;;;;5095845;28;20040;-74
2023/04/09 04:16:22;;;;;;;39.08;20.73;;;7.50;99.90;;;;;;5096011;28;20040;-74
2023/04/09 04:18:47;;;;;;;42.10;20.60;;;7.50;99.90;;;;;;5095820;28;20044;-73
2023/04/09 04:21:14;;;;;;;41.72;21.38;;;7.50;99.90;;;;;;5097708;28;20494;-74
2023/04/09 04:23:39;;;;;;;42.97;20.02;;;7.60;99.90;;;;;;5115844;28;20480;-74
2023/04/09 04:26:09;;;;;;;38.65;20.02;;;7.60;99.90;;;;;;5084440;28;20045;-75
2023/04/09 04:28:39;;;;;;;37.28;20.40;;;8.20;99.90;;;;;;5094906;28;20048;-74
2023/04/09 04:31:11;;;;;;;37.95;20.90;;;7.60;99.90;;;;;;5095165;28;20545;-74
2023/04/09 04:33:39;;;;;;;37.35;20.38;;;7.60;99.90;;;;;;5091473;28;21017;-75
2023/04/09 04:36:09;;;;;;;40.75;20.42;;;7.60;99.90;;;;;;5087914;28;20093;-73
2023/04/09 04:38:35;;;;;;;40.22;20.27;;;7.90;99.90;;;;;;5100656;28;20091;-74
2023/04/09 04:41:01;;;;;;;40.65;20.25;;;7.50;99.90;;;;;;5111614;28;20109;-73
2023/04/09 04:43:27;;;;;;;39.38;18.88;;;7.50;99.90;;;;;;5095359;28;20083;-74
2023/04/09 04:45:53;;;;;;;35.25;19.50;;;7.50;99.90;;;;;;5094994;28;20456;-74
2023/04/09 04:48:19;;;;;;;37.97;19.33;;;7.50;99.90;;;;;;5095237;28;20131;-74
2023/04/09 04:50:45;;;;;;;31.88;17.73;;;7.80;99.90;;;;;;5095337;28;20135;-76
2023/04/09 04:53:10;;;;;;;39.03;20.08;;;7.50;99.90;;;;;;5095078;28;20048;-75
2023/04/09 04:55:38;;;;;;;36.92;18.73;;;7.50;99.90;;;;;;5096131;28;20032;-74
2023/04/09 04:58:04;;;;;;;32.60;19.60;;;7.50;99.90;;;;;;5093666;28;20051;-74
2023/04/09 05:00:30;;;;;;;38.75;20.85;;;7.80;99.90;;;;;;5094646;28;20047;-74
2023/04/09 05:02:56;;;;;;;38.25;18.88;;;7.50;99.90;;;;;;5094717;28;20036;-78
2023/04/09 05:05:21;;;;;;;39.35;20.95;;;7.80;99.90;;;;;;5092637;28;20166;-75
2023/04/09 05:07:47;;;;;;;38.97;20.00;;;7.50;99.90;;;;;;5095107;28;20123;-75
2023/04/09 05:10:12;;;;;;;38.25;20.17;;;7.50;99.90;;;;;;5094703;28;20040;-75
2023/04/09 05:12:38;;;;;;;34.22;18.85;;;7.50;99.90;;;;;;5095960;28;20063;-75
2023/04/09 05:15:04;;;;;;;45.67;21.52;;;7.50;99.90;;;;;;5093062;28;20036;-76
2023/04/09 05:17:30;;;;;;;39.33;19.70;;;7.50;99.90;;;;;;5082525;28;20044;-75
2023/04/09 05:19:56;;;;;;;38.65;19.90;;;7.50;99.90;;;;;;5092058;28;20048;-75
2023/04/09 05:22:22;;;;;;;39.70;20.13;;;7.50;99.90;;;;;;5094283;28;20123;-79
2023/04/09 05:24:48;;;;;;;38.42;20.08;;;7.90;99.90;;;;;;5094625;28;20590;-77
2023/04/09 05:27:13;;;;;;;42.13;20.88;;;7.90;99.90;;;;;;5094285;28;20036;-81
2023/04/09 05:29:39;;;;;;;43.75;21.80;;;7.60;99.90;;;;;;5098904;28;20120;-78
2023/04/09 05:32:05;;;;;;;41.03;21.05;;;7.60;99.90;;;;;;5102064;28;20079;-79
2023/04/09 05:34:31;;;;;;;39.97;22.02;;;7.50;99.90;;;;;;5094409;28;20127;-74
2023/04/09 05:36:57;;;;;;;37.25;20.15;;;7.60;99.90;;;;;;5094240;28;20036;-75
2023/04/09 05:39:22;;;;;;;41.63;20.92;;;7.60;99.90;;;;;;5094121;28;20476;-74
2023/04/09 05:41:48;;;;;;;41.42;20.17;;;7.70;99.90;;;;;;5092948;28;20043;-75
2023/04/09 05:44:14;;;;;;;36.17;20.33;;;7.70;99.90;;;;;;5091987;28;20044;-75
2023/04/09 05:46:40;;;;;;;39.38;19.95;;;7.70;99.90;;;;;;5093973;28;20072;-73
2023/04/09 05:49:06;;;;;;;38.25;20.33;;;7.70;99.90;;;;;;5093285;28;20507;-76
2023/04/09 05:51:32;;;;;;;38.17;18.92;;;7.70;99.90;;;;;;5093774;28;20123;-76
2023/04/09 05:53:58;;;;;;;37.03;20.67;;;7.70;99.90;;;;;;5094235;28;20131;-74
2023/04/09 05:56:24;;;;;;;37.93;19.30;;;8.20;99.90;;;;;;5092967;28;20471;-75
2023/04/09 05:58:50;;;;;;;35.60;19.60;;;7.60;99.90;;;;;;5091077;28;20172;-77
2023/04/09 06:01:15;;;;;;;38.40;20.70;;;7.60;99.90;;;;;;5092417;28;20480;-76
2023/04/09 06:03:42;;;;;;;36.05;19.45;;;7.90;99.90;;;;;;5099429;28;20042;-78
2023/04/09 06:06:07;;;;;;;36.38;19.48;;;7.60;99.90;;;;;;5112988;28;20039;-76
2023/04/09 06:08:33;;;;;;;40.60;18.45;;;7.60;99.90;;;;;;5092750;28;20050;-75
2023/04/09 06:10:58;;;;;;;38.45;19.27;;;7.60;99.90;;;;;;5093417;28;20044;-75
2023/04/09 06:13:24;;;;;;;37.75;19.98;;;7.60;99.90;;;;;;5092727;28;20044;-78
2023/04/09 06:15:50;;;;;;;41.75;21.33;;;7.60;99.90;;;;;;5091549;28;20055;-75
2023/04/09 06:18:16;;;;;;;42.13;19.73;;;7.60;99.90;;;;;;5091730;28;20043;-78
2023/04/09 06:20:41;;;;;;;42.45;22.83;;;7.60;99.90;;;;;;5081597;28;20050;-82
2023/04/09 06:23:07;;;;;;;44.58;22.77;;;7.60;99.90;;;;;;5083357;28;20489;-84
2023/04/09 06:25:34;;;;;;;41.35;23.17;;;7.60;99.90;;;;;;5080912;28;20040;-76
2023/04/09 06:27:59;;;;;;;42.30;23.30;;;7.60;99.90;;;;;;5088364;28;20044;-79
2023/04/09 06:30:25;;;;;;;40.15;21.80;;;7.60;99.90;;;;;;5093609;28;20403;-74
2023/04/09 06:32:51;;;;;;;42.23;22.47;;;7.60;99.90;;;;;;5080455;28;20111;-77
2023/04/09 06:35:17;;;;;;;38.42;21.20;;;7.70;99.90;;;;;;5072504;28;20128;-81
2023/04/09 06:37:42;;;;;;;45.80;24.48;;;7.70;99.90;;;;;;5086383;28;20051;-79
2023/04/09 06:40:08;;;;;;;42.97;22.92;;;7.80;99.90;;;;;;5079054;28;20040;-76
2023/04/09 06:42:34;;;;;;;44.95;22.33;;;7.80;99.90;;;;;;5085040;28;20040;-77
2023/04/09 06:44:59;;;;;;;42.67;23.15;;;7.90;99.90;;;;;;5073305;28;20052;-78
2023/04/09 06:47:25;;;;;;;43.30;22.77;;;7.90;99.90;;;;;;5090563;28;20040;-78
2023/04/09 06:49:51;;;;;;;45.22;22.77;;;8.40;99.90;;;;;;5085277;28;20138;-78
2023/04/09 06:52:17;;;;;;;45.85;23.15;;;8.70;99.90;;;;;;5087399;28;20056;-77
2023/04/09 06:54:44;;;;;;;43.85;23.17;;;8.10;99.90;;;;;;5091656;28;20063;-79
2023/04/09 06:57:10;;;;;;;;;;;8.40;99.90;;;;;;5094978;28;20049;-79
2023/04/09 06:59:35;;;;;;;43.47;21.58;;;8.20;99.90;;;;;;5086096;28;19924;-76
2023/04/09 07:02:01;;;;;;;42.85;21.88;;;8.30;99.90;;;;;;5085101;28;20449;-77
2023/04/09 07:04:27;;;;;;;41.50;20.88;;;8.30;99.90;;;;;;5088499;28;20050;-73
2023/04/09 07:06:53;;;;;;;38.55;20.25;;;8.40;99.90;;;;;;5093406;28;20089;-77
2023/04/09 07:09:19;;;;;;;41.67;21.08;;;8.40;99.90;;;;;;5097133;28;20420;-75
2023/04/09 07:11:45;;;;;;;40.72;20.40;;;8.40;99.90;;;;;;5097150;28;20052;-75
2023/04/09 07:14:11;;;;;;;38.10;21.02;;;8.50;99.90;;;;;;5078037;28;20124;-77
2023/04/09 07:16:36;;;;;;;40.22;20.83;;;8.50;99.90;;;;;;5091525;28;20040;-76
2023/04/09 07:19:02;;;;;;;37.53;20.05;;;8.60;99.90;;;;;;5081197;28;20040;-77
2023/04/09 07:21:28;;;;;;;42.58;20.58;;;8.80;99.90;;;;;;5089884;28;20044;-78
2023/04/09 07:23:55;;;;;;;37.95;20.27;;;8.90;99.90;;;;;;5096625;28;20127;-76
2023/04/09 07:26:21;;;;;;;39.35;21.30;;;8.90;99.90;;;;;;5096816;28;20506;-77
2023/04/09 07:28:47;;;;;;;38.95;20.83;;;8.90;99.90;;;;;;5097863;28;20048;-77
2023/04/09 07:31:13;;;;;;;42.95;21.00;;;8.90;99.90;;;;;;5089248;28;20048;-77
2023/04/09 07:33:39;;;;;;;38.60;21.35;;;9.00;99.90;;;;;;5088755;28;20396;-73
2023/04/09 07:36:05;;;;;;;41.55;20.35;;;9.00;99.90;;;;;;5091444;28;20059;-74
2023/04/09 07:38:32;;;;;;;41.15;22.30;;;9.00;99.90;;;;;;5092867;28;20044;-73
2023/04/09 07:40:57;;;;;;;41.28;21.50;;;9.60;99.90;;;;;;5094652;28;20567;-74
2023/04/09 07:43:23;;;;;;;40.78;22.67;;;9.00;99.90;;;;;;5094707;28;20040;-73
2023/04/09 07:45:50;;;;;;;45.75;21.25;;;9.10;99.90;;;;;;5094503;28;20427;-74
2023/04/09 07:48:16;;;;;;;39.88;20.73;;;9.80;99.90;;;;;;5094751;28;20044;-73
2023/04/09 07:50:43;;;;;;;38.27;21.67;;;9.30;99.90;;;;;;5095048;28;20075;-73
2023/04/09 07:53:10;;;;;;;36.85;20.20;;;9.40;99.90;;;;;;5096200;28;20052;-74
2023/04/09 07:55:36;;;;;;;40.75;21.42;;;9.50;99.90;;;;;;5096343;28;20040;-73
2023/04/09 07:58:03;;;;;;;40.42;22.08;;;9.50;99.90;;;;;;5096090;28;20495;-73
2023/04/09 08:00:29;;;;;;;40.03;21.55;;;9.50;99.90;;;;;;5094698;28;20044;-74
2023/04/09 08:02:56;;;;;;;41.13;21.48;;;10.10;99.90;;;;;;5096160;28;20384;-74
2023/04/09 08:05:22;;;;;;;41.10;21.98;;;9.60;99.90;;;;;;5096456;28;20058;-75
2023/04/09 08:07:49;;;;;;;37.67;21.27;;;9.70;99.90;;;;;;5096125;28;20135;-73
2023/04/09 08:10:15;;;;;;;39.67;21.90;;;9.60;99.90;;;;;;5096168;28;20400;-74
2023/04/09 08:12:41;;;;;;;42.03;23.05;;;9.70;99.90;;;;;;5096062;28;20047;-75
2023/04/09 08:15:07;;;;;;;41.20;22.42;;;9.80;99.90;;;;;;5095948;28;20464;-73
2023/04/09 08:17:32;;;;;;;37.42;19.27;;;9.80;99.90;;;;;;5096307;28;20043;-73
2023/04/09 08:19:58;;;;;;;36.35;20.13;;;9.90;99.90;;;;;;5096259;28;20052;-73
2023/04/09 08:22:24;;;;;;;37.67;20.90;;;9.90;99.90;;;;;;5096416;28;20380;-74
2023/04/09 08:24:52;;;;;;;38.90;20.35;;;9.90;99.90;;;;;;5095755;28;20044;-73
2023/04/09 08:27:19;;;;;;;41.17;21.70;;;10.20;99.90;;;;;;5095827;28;20040;-72
2023/04/09 08:29:44;;;;;;;39.30;20.40;;;10.00;99.90;;;;;;5095590;28;20063;-74
2023/04/09 08:32:10;;;;;;;37.83;20.55;;;10.20;99.90;;;;;;5095313;28;20739;-73
2023/04/09 08:34:36;;;;;;;39.58;20.50;;;10.10;99.90;;;;;;5095545;28;20044;-75
2023/04/09 08:37:02;;;;;;;41.78;22.42;;;10.30;99.90;;;;;;5095531;28;20486;-74
2023/04/09 08:39:27;;;;;;;40.03;21.90;;;10.40;99.90;;;;;;5095495;28;20071;-74
2023/04/09 08:42:01;;;;;;;34.58;19.90;;;10.40;99.90;;;;;;5094954;28;20492;-74
2023/04/09 08:44:27;;;;;;;36.03;21.10;;;10.60;99.90;;;;;;5095411;28;20054;-75
2023/04/09 08:46:53;;;;;;;37.53;20.35;;;10.70;99.90;;;;;;5095714;28;20036;-73
2023/04/09 08:49:23;;;;;;;37.72;20.13;;;10.90;99.90;;;;;;5095148;28;20054;-74
2023/04/09 08:51:49;;;;;;;38.50;19.58;;;11.30;99.90;;;;;;5095227;28;20059;-73
2023/04/09 08:54:16;;;;;;;34.05;20.30;;;11.00;99.90;;;;;;5095354;28;20048;-74
2023/04/09 08:56:42;;;;;;;33.35;19.38;;;11.00;99.90;;;;;;5095099;28;20066;-74
2023/04/09 08:59:08;;;;;;;33.63;18.83;;;11.10;99.90;;;;;;5094718;28;20040;-75
2023/04/09 09:01:34;;;;;;;37.55;19.45;;;11.10;99.90;;;;;;5095081;28;20400;-74
2023/04/09 09:04:02;;;;;;;38.70;20.27;;;11.20;99.90;;;;;;5094662;28;20036;-74
2023/04/09 09:06:31;;;;;;;32.80;18.50;;;11.20;99.90;;;;;;5095024;28;20430;-73
2023/04/09 09:09:03;;;;;;;35.50;20.55;;;11.30;99.90;;;;;;5094865;28;20052;-75
2023/04/09 09:11:29;;;;;;;34.88;19.92;;;11.40;99.90;;;;;;5094525;28;20059;-74
2023/04/09 09:14:00;;;;;;;32.72;18.40;;;11.60;99.90;;;;;;5094760;28;20047;-73
2023/04/09 09:16:26;;;;;;;33.22;18.50;;;11.70;99.90;;;;;;5095141;28;20044;-74
2023/04/09 09:18:52;;;;;;;36.77;20.33;;;11.80;99.90;;;;;;5094777;28;20039;-74
2023/04/09 09:21:18;;;;;;;35.47;19.80;;;11.80;99.90;;;;;;5094639;28;20047;-73
2023/04/09 09:23:47;;;;;;;30.97;18.03;;;11.70;99.90;;;;;;5094774;28;20050;-74
2023/04/09 09:26:17;;;;;;;31.83;18.85;;;11.80;99.90;;;;;;5083770;28;20167;-79
2023/04/09 09:28:47;;;;;;;38.13;19.00;;;11.80;99.90;;;;;;5083578;28;20044;-75
2023/04/09 09:31:14;;;;;;;36.35;21.63;;;11.80;99.90;;;;;;5089955;28;20043;-75
2023/04/09 09:33:40;;;;;;;35.33;19.33;;;11.90;99.90;;;;;;5081759;28;20044;-75
2023/04/09 09:36:09;;;;;;;33.90;19.55;;;12.00;99.90;;;;;;5061070;28;20048;-78
2023/04/09 09:38:55;;;;;;;36.78;19.15;;;12.10;99.90;;;;;;5097211;28;20108;-78
2023/04/09 09:41:22;;;;;;;36.75;19.83;;;12.20;99.90;;;;;;5086649;28;20039;-74
2023/04/09 09:43:48;;;;;;;35.80;20.02;;;12.20;99.90;;;;;;5094811;28;20046;-73
2023/04/09 09:46:15;;;;;;;33.50;18.85;;;12.30;99.90;;;;;;5090373;28;20055;-74
2023/04/09 09:48:41;;;;;;;32.97;18.90;;;12.40;99.90;;;;;;5086191;28;20044;-75
2023/04/09 09:51:09;;;;;;;34.10;19.30;;;12.80;99.90;;;;;;5083396;28;20123;-75
2023/04/09 09:53:39;;;;;;;29.75;18.05;;;12.70;99.90;;;;;;5085185;28;20291;-76
2023/04/09 09:56:08;;;;;;;32.53;18.70;;;12.80;99.90;;;;;;5090504;28;20096;-73
2023/04/09 09:58:40;;;;;;;30.73;18.17;;;12.80;99.90;;;;;;5090455;28;20169;-77
2023/04/09 10:01:10;;;;;;;34.60;19.17;;;13.00;99.90;;;;;;5088413;28;20044;-72
2023/04/09 10:03:48;;;;;;;30.92;18.70;;;13.10;99.90;;;;;;5086997;28;20083;-76
2023/04/09 10:06:14;;;;;;;26.80;16.17;;;13.10;99.90;;;;;;5081130;28;20041;-73
2023/04/09 10:08:41;;;;;;;31.10;18.70;;;13.60;99.90;;;;;;5089544;28;20044;-76
2023/04/09 10:11:07;;;;;;;32.75;19.42;;;13.10;99.90;;;;;;5089007;28;20055;-74
2023/04/09 10:13:37;;;;;;;31.93;19.50;;;13.20;99.90;;;;;;5089708;28;20044;-78
2023/04/09 10:16:05;;;;;;;32.67;18.60;;;13.10;99.90;;;;;;5084839;28;20158;-74
2023/04/09 10:18:34;;;;;;;28.83;18.15;;;13.20;99.90;;;;;;5084599;28;20055;-74
2023/04/09 10:21:42;;;;;;;27.80;16.80;;;13.20;99.90;;;;;;5088741;28;20075;-75
2023/04/09 10:24:08;;;;;;;32.63;19.48;;;13.30;99.90;;;;;;5004220;28;20124;-76
2023/04/09 10:26:35;;;;;;;32.33;19.03;;;13.30;99.90;;;;;;4985343;28;20125;-75
2023/04/09 10:29:13;;;;;;;30.67;19.13;;;13.40;99.90;;;;;;5048499;28;20056;-76
2023/04/09 10:31:51;;;;;;;30.50;18.75;;;13.40;99.90;;;;;;5083676;28;20983;-75
2023/04/09 10:34:22;;;;;;;31.02;19.05;;;13.20;99.90;;;;;;5084990;28;20047;-75
2023/04/09 10:36:55;;;;;;;29.92;17.52;;;13.40;99.90;;;;;;5084586;28;20068;-74
2023/04/09 10:39:27;;;;;;;31.73;17.90;;;13.50;99.90;;;;;;5064981;28;20548;-77
2023/04/09 10:41:54;;;;;;;26.45;17.02;;;13.50;99.90;;;;;;5084544;28;20048;-84
2023/04/09 10:44:21;;;;;;;26.08;16.60;;;13.60;99.90;;;;;;5071501;28;20044;-80
2023/04/09 10:46:47;;;;;;;35.33;18.38;;;13.70;99.90;;;;;;5069147;28;20048;-80
2023/04/09 10:49:18;;;;;;;28.60;17.30;;;13.90;99.90;;;;;;5071282;28;20123;-81
2023/04/09 10:52:03;;;;;;;30.35;17.33;;;13.80;99.90;;;;;;5072471;28;20053;-80
2023/04/09 10:54:36;;;;;;;27.63;16.00;;;13.80;99.90;;;;;;5055161;28;20055;-80
2023/04/09 10:57:07;;;;;;;28.63;16.63;;;14.00;99.90;;;;;;5072055;28;20036;-80
2023/04/09 10:59:37;;;;;;;28.20;15.27;;;14.40;99.90;;;;;;5072413;28;20040;-81
2023/04/09 11:02:38;;;;;;;26.33;16.52;;;14.20;99.90;;;;;;5073274;28;20563;-80
2023/04/09 11:05:23;;;;;;;25.92;15.77;;;14.30;99.90;;;;;;5049829;28;20139;-80
2023/04/09 11:08:08;;;;;;;25.27;15.77;;;14.40;99.90;;;;;;5073465;28;20463;-81
2023/04/09 11:10:34;;;;;;;30.13;17.40;;;14.20;99.90;;;;;;5074223;28;20044;-79
2023/04/09 11:13:01;;;;;;;26.63;15.63;;;14.00;99.90;;;;;;5071735;28;20098;-74
2023/04/09 11:15:27;;;;;;;27.25;16.13;;;13.80;99.90;;;;;;5085726;28;20434;-76
2023/04/09 11:17:53;;;;;;;27.30;16.48;;;13.60;99.90;;;;;;5086914;28;20071;-72
2023/04/09 11:20:21;;;;;;;24.13;14.97;;;13.60;99.90;;;;;;5091161;28;20044;-78
2023/04/09 11:22:49;;;;;;;29.30;16.02;;;13.80;99.90;;;;;;5084089;28;20090;-73
2023/04/09 11:25:26;;;;;;;29.13;16.20;;;13.90;99.90;;;;;;5085739;28;20465;-73
2023/04/09 11:27:53;;;;;;;28.20;15.77;;;14.20;99.90;;;;;;5096963;28;20120;-73
2023/04/09 11:30:19;;;;;;;25.65;14.52;;;14.40;99.90;;;;;;5086621;28;20036;-76
2023/04/09 11:32:45;;;;;;;25.93;16.10;;;14.40;99.90;;;;;;5089420;28;20106;-75
2023/04/09 11:35:12;;;;;;;21.87;13.67;;;14.60;99.90;;;;;;5093859;28;20044;-79
2023/04/09 11:37:39;;;;;;;22.50;14.63;;;14.60;99.90;;;;;;5092258;28;20301;-77
2023/04/09 11:40:05;;;;;;;25.85;14.38;;;14.50;99.90;;;;;;5082485;28;20047;-76
2023/04/09 11:42:31;;;;;;;25.13;14.23;;;14.40;99.90;;;;;;5094399;28;20048;-77
2023/04/09 11:44:57;;;;;;;24.25;14.45;;;14.40;99.90;;;;;;5084264;28;20298;-77
2023/04/09 11:47:23;;;;;;;25.57;15.40;;;14.30;99.90;;;;;;5095377;28;20044;-78
2023/04/09 11:49:49;;;;;;;24.55;14.73;;;14.30;99.90;;;;;;5090736;28;20048;-74
2023/04/09 11:52:15;;;;;;;24.40;15.10;;;14.10;99.90;;;;;;5083461;28;20059;-78
2023/04/09 11:54:42;;;;;;;23.20;14.45;;;14.00;99.90;;;;;;5091825;28;20047;-75
2023/04/09 11:57:07;;;;;;;22.38;12.85;;;14.10;99.90;;;;;;5090845;28;20135;-78
2023/04/09 11:59:33;;;;;;;21.83;13.15;;;14.40;99.90;;;;;;5084848;28;20123;-74
2023/04/09 12:01:59;;;;;;;21.47;12.83;;;14.50;99.90;;;;;;5084884;28;20052;-76
2023/04/09 12:04:25;;;;;;;19.93;13.03;;;14.80;99.90;;;;;;5091721;28;20040;-77
2023/04/09 12:06:55;;;;;;;22.33;14.00;;;14.70;99.90;;;;;;5085804;28;20114;-75
2023/04/09 12:09:21;;;;;;;21.92;13.10;;;14.70;99.90;;;;;;5088689;28;20699;-74
2023/04/09 12:11:47;;;;;;;22.23;13.00;;;14.50;99.90;;;;;;5090473;28;20131;-76
2023/04/09 12:14:15;;;;;;;17.13;11.75;;;14.50;99.90;;;;;;5086752;28;20123;-75
2023/04/09 12:16:42;;;;;;;22.00;14.20;;;14.60;99.90;;;;;;5082945;28;20065;-77
2023/04/09 12:19:11;;;;;;;22.58;14.10;;;14.60;99.90;;;;;;5088588;28;20056;-80
2023/04/09 12:21:55;;;;;;;20.63;13.13;;;14.70;99.90;;;;;;5083014;28;20074;-78
2023/04/09 12:24:24;;;;;;;18.90;12.80;;;14.80;99.90;;;;;;5090011;28;20042;-75
2023/04/09 12:26:50;;;;;;;20.83;13.07;;;14.80;99.90;;;;;;5083818;28;20087;-81
2023/04/09 12:29:20;;;;;;;21.25;13.13;;;14.70;99.90;;;;;;5085995;28;20089;-78
2023/04/09 12:31:46;;;;;;;19.48;11.85;;;14.70;99.90;;;;;;5087683;28;20043;-83
2023/04/09 12:34:12;;;;;;;19.30;11.33;;;14.80;99.90;;;;;;5088799;28;20400;-76
2023/04/09 12:36:40;;;;;;;18.15;12.02;;;15.10;99.90;;;;;;5089731;28;21054;-76